Spring Nelson — VRIT3 — position and weather

sailwx.info

Track history (hours):
 
Tides and Currents Weather Stations Pressure Air Temp Water Temp Dewpoint Dewpoint Depression Visibility Wind Speed Wind Dir Waves Ship Positions

Spring Nelson

Last reported at 2018-Apr-22 11:51 UTC. Time now 2018-Apr-23 19:35 UTC.
Position N 33°53' E 129°34'.

Length 112 m; draft 7.9 m.

Type: Cargo ship. MMSI: 477950800.

Date/timePositionNaut miles runAvg speedWind from/ knotsBaromVisibWave heightAir tempDewpointWater temp
2018-Apr-22 11:51N 33°53' E 129°34'411.7
2018-Apr-22 11:30N 33°55' E 129°38'610.9
2018-Apr-22 10:55N 33°57' E 129°45'510.9
2018-Apr-22 10:30N 33°57' E 129°51'510.8
2018-Apr-22 10:00N 33°58' E 129°57'611.2
2018-Apr-22 09:30N 33°59' E 130°04'611.1
2018-Apr-22 09:00N 33°59' E 130°10'510.9
2018-Apr-22 08:30N 34°00' E 130°17'510.7
2018-Apr-22 08:00N 34°01' E 130°23'510.4
2018-Apr-22 07:29N 34°01' E 130°30'510.3
2018-Apr-22 07:00N 34°02' E 130°36'510.3
2018-Apr-22 06:30N 34°02' E 130°42'5 9.9
2018-Apr-22 06:00N 34°02' E 130°48'4 8.1
2018-Apr-22 05:30N 33°59' E 130°50'510.2
2018-Apr-22 05:00N 33°55' E 130°54'510.4
2018-Apr-22 04:30N 33°58' E 130°58'5 9.1
2018-Apr-22 04:00N 33°57' E 131°03'510.4
2018-Apr-22 03:30N 33°54' E 131°09'510.5
2018-Apr-22 03:00N 33°51' E 131°14'510.7
2018-Apr-22 02:30N 33°50' E 131°21'510.6
2018-Apr-22 02:00N 33°49' E 131°27'510.9
2018-Apr-22 01:30N 33°48' E 131°33'510.8
2018-Apr-22 01:00N 33°47' E 131°40'511.0
2018-Apr-22 00:30N 33°46' E 131°46'510.7
2018-Apr-22 00:00N 33°45' E 131°52'1810.7
2018-Apr-21 22:18N 33°44' E 132°14'411.3
2018-Apr-21 21:55N 33°45' E 132°19'711.3
2018-Apr-21 21:18N 33°47' E 132°27'311.4
2018-Apr-21 21:00N 33°49' E 132°31'511.1
2018-Apr-21 20:30N 33°53' E 132°35'611.0
2018-Apr-21 20:00N 33°56' E 132°41'510.3
2018-Apr-21 19:30N 34°00' E 132°44'510.4
2018-Apr-21 19:00N 34°04' E 132°49'  
2018-Apr-14 17:41N 34°04' E 132°49'210.9
2018-Apr-14 17:30N 34°02' E 132°47'510.2
2018-Apr-14 17:00N 33°58' E 132°44'5 9.3
2018-Apr-14 16:31N 33°55' E 132°40'5 9.0
2018-Apr-14 15:59N 33°52' E 132°36'510.6
2018-Apr-14 15:28N 33°48' E 132°31'1111.3
2018-Apr-14 14:29N 33°44' E 132°19'1411.4
2018-Apr-14 13:14N 33°42' E 132°02'312.0
2018-Apr-14 13:00N 33°43' E 131°58'612.1
2018-Apr-14 12:30N 33°44' E 131°51'612.0
2018-Apr-14 12:00N 33°45' E 131°44'611.3
2018-Apr-14 11:30N 33°47' E 131°38'611.1
2018-Apr-14 11:00N 33°48' E 131°31'611.1
2018-Apr-14 10:30N 33°49' E 131°25'510.9
2018-Apr-14 10:00N 33°50' E 131°18'510.3
2018-Apr-14 09:30N 33°51' E 131°12'5 9.7
2018-Apr-14 09:00N 33°54' E 131°07'510.4
2018-Apr-14 08:30N 33°57' E 131°02'4 8.5
2018-Apr-14 08:00N 33°57' E 130°57'4 8.1
2018-Apr-14 07:30N 33°55' E 130°53'5 9.9
2018-Apr-14 07:00N 33°59' E 130°50'4 8.4
2018-Apr-14 06:30N 34°03' E 130°47'5 9.2
2018-Apr-14 06:00N 34°05' E 130°43'4 9.0
2018-Apr-14 05:31N 34°07' E 130°38'4 8.6
2018-Apr-14 05:00N 34°09' E 130°33'4 8.4
2018-Apr-14 04:30N 34°12' E 130°30'4 8.9
2018-Apr-14 04:00N 34°15' E 130°26'3 5.4
2018-Apr-14 03:30N 34°16' E 130°23'1 1.5
2018-Apr-14 03:00N 34°16' E 130°24'1 1.5
2018-Apr-14 02:30N 34°16' E 130°24'1 1.6
2018-Apr-14 02:00N 34°15' E 130°25'1 1.8
2018-Apr-14 01:30N 34°15' E 130°26'1 2.0
2018-Apr-14 01:00N 34°15' E 130°28'1 2.1
2018-Apr-14 00:30N 34°14' E 130°29'1 2.2
2018-Apr-14 00:00N 34°14' E 130°30'1 2.2
2018-Apr-13 23:30N 34°14' E 130°31'1 2.1
2018-Apr-13 23:00N 34°14' E 130°33'1 2.1
2018-Apr-13 22:30N 34°14' E 130°34'1 2.1
2018-Apr-13 21:57N 34°14' E 130°35'2 4.7
2018-Apr-13 21:30N 34°13' E 130°38'510.5
2018-Apr-13 21:01N 34°09' E 130°40'4 8.8
2018-Apr-13 20:30N 34°07' E 130°35'5 9.2
2018-Apr-13 20:00N 34°06' E 130°30'5 9.1
2018-Apr-13 19:30N 34°04' E 130°25'5 9.2
2018-Apr-13 19:00N 34°03' E 130°19'5 9.2
2018-Apr-13 18:30N 34°01' E 130°14'4 8.9
2018-Apr-13 18:00N 34°00' E 130°09'4 9.0
2018-Apr-13 17:30N 33°60' E 130°04'4 8.8
2018-Apr-13 17:00N 33°59' E 129°58'5 9.0
2018-Apr-13 16:30N 33°59' E 129°53'4 8.9
2018-Apr-13 16:00N 33°58' E 129°48'4 8.7
2018-Apr-13 15:29N 33°57' E 129°42'4 8.0
2018-Apr-13 15:00N 33°57' E 129°38'6 7.8
2018-Apr-13 14:16N 33°56' E 129°31'43 2.2
2018-Apr-12 18:40N 33°55' E 128°39'0 1.4
2018-Apr-12 18:28N 33°55' E 128°39'1 1.6
2018-Apr-12 17:55N 33°56' E 128°39'1 1.7
2018-Apr-12 17:28N 33°57' E 128°38'2 1.5
2018-Apr-12 16:10N 33°58' E 128°36'  
Track history (hours):
 
Tides and Currents Weather Stations Pressure Air Temp Water Temp Dewpoint Dewpoint Depression Visibility Wind Speed Wind Dir Waves Ship Positions

Spring Nelson

Last reported at 2018-Apr-22 11:51 UTC. Time now 2018-Apr-23 19:35 UTC.
Position N 33°53' E 129°34'.

Length 112 m; draft 7.9 m.

Type: Cargo ship. MMSI: 477950800.

Date/timePositionNaut miles runAvg speedWind from/ knotsBaromVisibWave heightAir tempDewpointWater temp
2018-Apr-22 11:51N 33°53' E 129°34'411.7
2018-Apr-22 11:30N 33°55' E 129°38'610.9
2018-Apr-22 10:55N 33°57' E 129°45'510.9
2018-Apr-22 10:30N 33°57' E 129°51'510.8
2018-Apr-22 10:00N 33°58' E 129°57'611.2
2018-Apr-22 09:30N 33°59' E 130°04'611.1
2018-Apr-22 09:00N 33°59' E 130°10'510.9
2018-Apr-22 08:30N 34°00' E 130°17'510.7
2018-Apr-22 08:00N 34°01' E 130°23'510.4
2018-Apr-22 07:29N 34°01' E 130°30'510.3
2018-Apr-22 07:00N 34°02' E 130°36'510.3
2018-Apr-22 06:30N 34°02' E 130°42'5 9.9
2018-Apr-22 06:00N 34°02' E 130°48'4 8.1
2018-Apr-22 05:30N 33°59' E 130°50'510.2
2018-Apr-22 05:00N 33°55' E 130°54'510.4
2018-Apr-22 04:30N 33°58' E 130°58'5 9.1
2018-Apr-22 04:00N 33°57' E 131°03'510.4
2018-Apr-22 03:30N 33°54' E 131°09'510.5
2018-Apr-22 03:00N 33°51' E 131°14'510.7
2018-Apr-22 02:30N 33°50' E 131°21'510.6
2018-Apr-22 02:00N 33°49' E 131°27'510.9
2018-Apr-22 01:30N 33°48' E 131°33'510.8
2018-Apr-22 01:00N 33°47' E 131°40'511.0
2018-Apr-22 00:30N 33°46' E 131°46'510.7
2018-Apr-22 00:00N 33°45' E 131°52'1810.7
2018-Apr-21 22:18N 33°44' E 132°14'411.3
2018-Apr-21 21:55N 33°45' E 132°19'711.3
2018-Apr-21 21:18N 33°47' E 132°27'311.4
2018-Apr-21 21:00N 33°49' E 132°31'511.1
2018-Apr-21 20:30N 33°53' E 132°35'611.0
2018-Apr-21 20:00N 33°56' E 132°41'510.3
2018-Apr-21 19:30N 34°00' E 132°44'510.4
2018-Apr-21 19:00N 34°04' E 132°49'  
2018-Apr-14 17:41N 34°04' E 132°49'210.9
2018-Apr-14 17:30N 34°02' E 132°47'510.2
2018-Apr-14 17:00N 33°58' E 132°44'5 9.3
2018-Apr-14 16:31N 33°55' E 132°40'5 9.0
2018-Apr-14 15:59N 33°52' E 132°36'510.6
2018-Apr-14 15:28N 33°48' E 132°31'1111.3
2018-Apr-14 14:29N 33°44' E 132°19'1411.4
2018-Apr-14 13:14N 33°42' E 132°02'312.0
2018-Apr-14 13:00N 33°43' E 131°58'612.1
2018-Apr-14 12:30N 33°44' E 131°51'612.0
2018-Apr-14 12:00N 33°45' E 131°44'611.3
2018-Apr-14 11:30N 33°47' E 131°38'611.1
2018-Apr-14 11:00N 33°48' E 131°31'611.1
2018-Apr-14 10:30N 33°49' E 131°25'510.9
2018-Apr-14 10:00N 33°50' E 131°18'510.3
2018-Apr-14 09:30N 33°51' E 131°12'5 9.7
2018-Apr-14 09:00N 33°54' E 131°07'510.4
2018-Apr-14 08:30N 33°57' E 131°02'4 8.5
2018-Apr-14 08:00N 33°57' E 130°57'4 8.1
2018-Apr-14 07:30N 33°55' E 130°53'5 9.9
2018-Apr-14 07:00N 33°59' E 130°50'4 8.4
2018-Apr-14 06:30N 34°03' E 130°47'5 9.2
2018-Apr-14 06:00N 34°05' E 130°43'4 9.0
2018-Apr-14 05:31N 34°07' E 130°38'4 8.6
2018-Apr-14 05:00N 34°09' E 130°33'4 8.4
2018-Apr-14 04:30N 34°12' E 130°30'4 8.9
2018-Apr-14 04:00N 34°15' E 130°26'3 5.4
2018-Apr-14 03:30N 34°16' E 130°23'1 1.5
2018-Apr-14 03:00N 34°16' E 130°24'1 1.5
2018-Apr-14 02:30N 34°16' E 130°24'1 1.6
2018-Apr-14 02:00N 34°15' E 130°25'1 1.8
2018-Apr-14 01:30N 34°15' E 130°26'1 2.0
2018-Apr-14 01:00N 34°15' E 130°28'1 2.1
2018-Apr-14 00:30N 34°14' E 130°29'1 2.2
2018-Apr-14 00:00N 34°14' E 130°30'1 2.2
2018-Apr-13 23:30N 34°14' E 130°31'1 2.1
2018-Apr-13 23:00N 34°14' E 130°33'1 2.1
2018-Apr-13 22:30N 34°14' E 130°34'1 2.1
2018-Apr-13 21:57N 34°14' E 130°35'2 4.7
2018-Apr-13 21:30N 34°13' E 130°38'510.5
2018-Apr-13 21:01N 34°09' E 130°40'4 8.8
2018-Apr-13 20:30N 34°07' E 130°35'5 9.2
2018-Apr-13 20:00N 34°06' E 130°30'5 9.1
2018-Apr-13 19:30N 34°04' E 130°25'5 9.2
2018-Apr-13 19:00N 34°03' E 130°19'5 9.2
2018-Apr-13 18:30N 34°01' E 130°14'4 8.9
2018-Apr-13 18:00N 34°00' E 130°09'4 9.0
2018-Apr-13 17:30N 33°60' E 130°04'4 8.8
2018-Apr-13 17:00N 33°59' E 129°58'5 9.0
2018-Apr-13 16:30N 33°59' E 129°53'4 8.9
2018-Apr-13 16:00N 33°58' E 129°48'4 8.7
2018-Apr-13 15:29N 33°57' E 129°42'4 8.0
2018-Apr-13 15:00N 33°57' E 129°38'6 7.8
2018-Apr-13 14:16N 33°56' E 129°31'43 2.2
2018-Apr-12 18:40N 33°55' E 128°39'0 1.4
2018-Apr-12 18:28N 33°55' E 128°39'1 1.6
2018-Apr-12 17:55N 33°56' E 128°39'1 1.7
2018-Apr-12 17:28N 33°57' E 128°38'2 1.5
2018-Apr-12 16:10N 33°58' E 128°36'  

Dump ship's entire track history